createdAt,value
2022-11-10T00:02:14.970Z,21.15
2022-11-10T00:04:41.732Z,21.26
2022-11-10T00:07:08.544Z,21.42
2022-11-10T00:09:35.466Z,21.56
2022-11-10T00:12:02.229Z,21.63
2022-11-10T00:14:47.855Z,21.72
2022-11-10T00:17:14.611Z,21.80
2022-11-10T00:19:41.347Z,21.86
2022-11-10T00:22:08.124Z,21.95
2022-11-10T00:24:34.888Z,22.07
2022-11-10T00:27:02.215Z,19.93
2022-11-10T00:29:29.022Z,17.43
2022-11-10T00:31:55.767Z,17.15
2022-11-10T00:34:22.553Z,19.18
2022-11-10T00:36:49.330Z,20.19
2022-11-10T00:39:16.095Z,20.74
2022-11-10T00:41:42.849Z,21.02
2022-11-10T00:44:09.678Z,21.14
2022-11-10T00:46:36.445Z,21.23
2022-11-10T00:49:03.311Z,21.36
2022-11-10T00:51:30.192Z,21.61
2022-11-10T00:53:57.007Z,21.65
2022-11-10T00:56:23.776Z,21.79
2022-11-10T00:58:50.564Z,21.78
2022-11-10T01:01:17.488Z,22.00
2022-11-10T01:03:44.351Z,21.95
2022-11-10T01:06:11.152Z,21.99
2022-11-10T01:08:37.901Z,20.91
2022-11-10T01:11:04.655Z,18.22
2022-11-10T01:13:31.506Z,17.14
2022-11-10T01:15:58.281Z,18.88
2022-11-10T01:18:25.045Z,20.02
2022-11-10T01:20:51.836Z,20.78
2022-11-10T01:23:18.674Z,21.14
2022-11-10T01:25:45.500Z,21.25
2022-11-10T01:28:12.264Z,21.32
2022-11-10T01:30:39.020Z,21.50
2022-11-10T01:33:05.782Z,21.65
2022-11-10T01:35:32.531Z,21.62
2022-11-10T01:37:59.292Z,21.77
2022-11-10T01:40:26.112Z,21.90
2022-11-10T01:42:52.925Z,21.87
2022-11-10T01:45:19.685Z,22.04
2022-11-10T01:47:46.432Z,22.00
2022-11-10T01:50:13.200Z,22.09
2022-11-10T01:52:39.949Z,20.00
2022-11-10T01:55:06.768Z,18.06
2022-11-10T01:57:33.562Z,17.83
2022-11-10T02:00:00.349Z,19.60
2022-11-10T02:02:27.110Z,20.50
2022-11-10T02:04:53.901Z,20.96
2022-11-10T02:07:20.648Z,21.13
2022-11-10T02:09:47.396Z,21.53
2022-11-10T02:12:14.154Z,21.50
2022-11-10T02:14:40.925Z,21.64
2022-11-10T02:17:07.716Z,21.81
2022-11-10T02:19:34.509Z,21.87
2022-11-10T02:22:01.282Z,21.85
2022-11-10T02:24:28.036Z,21.98
2022-11-10T02:26:54.876Z,22.08
2022-11-10T02:29:21.633Z,21.67
2022-11-10T02:31:48.459Z,18.73
2022-11-10T02:34:15.254Z,17.33
2022-11-10T02:36:42.064Z,18.56
2022-11-10T02:39:08.828Z,19.84
2022-11-10T02:41:35.586Z,20.58
2022-11-10T02:44:02.341Z,21.18
2022-11-10T02:46:29.097Z,21.33
2022-11-10T02:48:55.899Z,21.36
2022-11-10T02:51:22.646Z,21.63
2022-11-10T02:53:50.057Z,21.59
2022-11-10T02:56:16.843Z,21.70
2022-11-10T02:58:43.597Z,21.71
2022-11-10T03:01:10.475Z,21.90
2022-11-10T03:03:37.445Z,21.93
2022-11-10T03:06:04.248Z,22.01
2022-11-10T03:08:30.988Z,22.12
2022-11-10T03:10:57.788Z,19.80
2022-11-10T03:13:24.897Z,18.02
2022-11-10T03:15:51.920Z,17.75
2022-11-10T03:18:18.694Z,19.55
2022-11-10T03:20:45.447Z,20.50
2022-11-10T03:23:12.197Z,21.09
2022-11-10T03:25:39.022Z,21.20
2022-11-10T03:28:05.804Z,21.35
2022-11-10T03:30:32.556Z,21.45
2022-11-10T03:32:59.326Z,21.51
2022-11-10T03:35:26.117Z,21.79
2022-11-10T03:37:52.875Z,21.80
2022-11-10T03:40:19.651Z,22.03
2022-11-10T03:42:46.404Z,22.10
2022-11-10T03:45:13.151Z,21.97
2022-11-10T03:47:39.986Z,21.94
2022-11-10T03:50:06.720Z,22.05
2022-11-10T03:52:33.539Z,21.18
2022-11-10T03:55:03.301Z,18.39
2022-11-10T03:57:30.482Z,17.15
2022-11-10T03:59:57.237Z,19.10
2022-11-10T04:02:24.020Z,20.04
2022-11-10T04:05:09.565Z,20.94
2022-11-10T04:07:54.884Z,21.20
2022-11-10T04:10:21.716Z,21.45
2022-11-10T04:13:07.218Z,21.40
2022-11-10T04:15:42.800Z,21.48
2022-11-10T04:18:21.634Z,21.65
2022-11-10T04:20:48.392Z,21.87
2022-11-10T04:23:27.459Z,21.86
2022-11-10T04:26:13.113Z,21.92
2022-11-10T04:28:39.886Z,22.09
2022-11-10T04:31:06.704Z,18.91
2022-11-10T04:33:33.514Z,17.50
2022-11-10T04:36:00.294Z,18.78
2022-11-10T04:38:27.049Z,20.27
2022-11-10T04:40:53.816Z,20.96
2022-11-10T04:43:20.991Z,21.36
2022-11-10T04:45:48.032Z,21.45
2022-11-10T04:48:14.822Z,21.50
2022-11-10T04:50:41.630Z,21.59
2022-11-10T04:53:08.373Z,21.79
2022-11-10T04:55:35.116Z,21.73
2022-11-10T04:58:01.947Z,21.84
2022-11-10T05:00:28.771Z,21.95
2022-11-10T05:02:55.551Z,22.04
2022-11-10T05:05:22.313Z,22.06
2022-11-10T05:07:49.094Z,19.49
2022-11-10T05:10:15.901Z,17.37
2022-11-10T05:12:42.653Z,17.49
2022-11-10T05:15:09.395Z,19.32
2022-11-10T05:17:36.147Z,20.45
2022-11-10T05:20:03.399Z,20.70
2022-11-10T05:22:30.158Z,20.99
2022-11-10T05:24:56.961Z,21.18
2022-11-10T05:27:23.766Z,21.40
2022-11-10T05:29:50.522Z,21.48
2022-11-10T05:32:17.288Z,21.57
2022-11-10T05:34:44.045Z,21.67
2022-11-10T05:37:10.792Z,21.73
2022-11-10T05:39:37.545Z,21.77
2022-11-10T05:42:04.371Z,21.89
2022-11-10T05:44:31.144Z,21.96
2022-11-10T05:46:57.980Z,22.08
2022-11-10T05:49:24.748Z,22.15
2022-11-10T05:51:51.509Z,19.35
2022-11-10T05:54:18.255Z,17.39
2022-11-10T05:56:45.824Z,17.83
2022-11-10T05:59:12.589Z,19.62
2022-11-10T06:01:39.334Z,20.56
2022-11-10T06:04:06.212Z,20.99
2022-11-10T06:06:33.015Z,21.13
2022-11-10T06:08:59.855Z,21.30
2022-11-10T06:11:26.722Z,21.51
2022-11-10T06:13:53.504Z,21.44
2022-11-10T06:16:20.257Z,21.56
2022-11-10T06:18:47.033Z,21.73
2022-11-10T06:21:13.876Z,22.09
2022-11-10T06:23:40.711Z,22.04
2022-11-10T06:26:07.502Z,22.07
2022-11-10T06:28:34.376Z,22.01
2022-11-10T06:31:01.282Z,21.67
2022-11-10T06:33:28.079Z,18.22
2022-11-10T06:35:55.128Z,17.62
2022-11-10T06:38:21.896Z,19.54
2022-11-10T06:40:48.657Z,20.60
2022-11-10T06:43:15.441Z,21.04
2022-11-10T06:45:42.193Z,21.25
2022-11-10T06:48:08.972Z,21.27
2022-11-10T06:50:35.914Z,21.35
2022-11-10T06:53:02.657Z,21.56
2022-11-10T06:55:29.443Z,21.74
2022-11-10T06:57:56.224Z,21.80
2022-11-10T07:00:23.047Z,21.91
2022-11-10T07:02:49.862Z,22.07
2022-11-10T07:05:16.693Z,22.12
2022-11-10T07:07:43.465Z,21.44
2022-11-10T07:10:10.243Z,18.10
2022-11-10T07:12:37.044Z,17.58
2022-11-10T07:15:03.817Z,19.62
2022-11-10T07:17:30.575Z,20.44
2022-11-10T07:19:57.325Z,21.01
2022-11-10T07:22:24.857Z,21.16
2022-11-10T07:24:51.679Z,21.44
2022-11-10T07:27:18.433Z,21.61
2022-11-10T07:29:45.368Z,21.59
2022-11-10T07:32:12.265Z,21.78
2022-11-10T07:34:39.179Z,21.70
2022-11-10T07:37:05.942Z,21.79
2022-11-10T07:39:32.709Z,22.08
2022-11-10T07:41:59.570Z,22.15
2022-11-10T07:44:27.668Z,21.38
2022-11-10T07:46:54.499Z,18.44
2022-11-10T07:49:21.261Z,17.37
2022-11-10T07:51:48.020Z,19.02
2022-11-10T07:54:15.277Z,20.10
2022-11-10T07:56:42.402Z,20.91
2022-11-10T07:59:09.260Z,21.30
2022-11-10T08:01:36.186Z,21.40
2022-11-10T08:04:03.018Z,21.42
2022-11-10T08:06:34.902Z,21.60
2022-11-10T08:09:02.855Z,21.57
2022-11-10T08:11:29.669Z,21.74
2022-11-10T08:13:56.416Z,21.95
2022-11-10T08:16:23.191Z,21.98
2022-11-10T08:18:50.043Z,22.04
2022-11-10T08:21:16.832Z,22.06
2022-11-10T08:23:44.674Z,22.00
2022-11-10T08:26:11.431Z,18.65
2022-11-10T08:28:38.306Z,18.34
2022-11-10T08:31:06.214Z,19.72
2022-11-10T08:33:33.285Z,20.60
2022-11-10T08:36:00.077Z,21.09
2022-11-10T08:38:26.872Z,21.43
2022-11-10T08:40:53.630Z,21.51
2022-11-10T08:43:20.742Z,21.71
2022-11-10T08:45:47.789Z,21.75
2022-11-10T08:48:14.607Z,21.92
2022-11-10T08:50:41.420Z,21.86
2022-11-10T08:53:08.250Z,22.01
2022-11-10T08:55:35.025Z,22.03
2022-11-10T08:58:01.781Z,19.25
2022-11-10T09:00:28.714Z,17.58
2022-11-10T09:02:56.052Z,18.18
2022-11-10T09:05:22.812Z,19.81
2022-11-10T09:07:49.814Z,20.52
2022-11-10T09:10:16.612Z,21.01
2022-11-10T09:12:43.450Z,21.23
2022-11-10T09:15:10.266Z,21.56
2022-11-10T09:17:37.087Z,21.73
2022-11-10T09:20:03.872Z,21.58
2022-11-10T09:22:30.697Z,21.66
2022-11-10T09:24:57.657Z,21.90
2022-11-10T09:27:24.455Z,21.94
2022-11-10T09:29:51.220Z,22.19
2022-11-10T09:32:18.125Z,21.97
2022-11-10T09:34:48.952Z,22.05
2022-11-10T09:37:19.576Z,19.72
2022-11-10T09:39:46.323Z,18.31
2022-11-10T09:42:13.061Z,19.02
2022-11-10T09:44:39.879Z,20.57
2022-11-10T09:47:06.655Z,21.12
2022-11-10T09:49:33.480Z,21.48
2022-11-10T09:52:00.285Z,21.57
2022-11-10T09:54:27.050Z,21.56
2022-11-10T09:56:55.864Z,21.81
2022-11-10T09:59:22.635Z,21.86
2022-11-10T10:01:49.546Z,21.89
2022-11-10T10:04:16.344Z,22.08
2022-11-10T10:07:04.847Z,22.15
2022-11-10T10:09:29.840Z,19.32
2022-11-10T10:11:56.626Z,18.48
2022-11-10T10:14:23.380Z,19.64
2022-11-10T10:16:50.249Z,20.81
2022-11-10T10:19:17.024Z,21.41
2022-11-10T10:21:43.790Z,21.38
2022-11-10T10:24:15.160Z,21.75
2022-11-10T10:26:46.836Z,21.71
2022-11-10T10:29:13.600Z,21.83
2022-11-10T10:31:40.368Z,21.91
2022-11-10T10:34:07.123Z,22.01
2022-11-10T10:36:33.859Z,22.19
2022-11-10T10:39:00.939Z,19.22
2022-11-10T10:41:27.743Z,18.40
2022-11-10T10:43:54.553Z,19.59
2022-11-10T10:46:27.654Z,20.97
2022-11-10T10:49:22.177Z,21.37
2022-11-10T10:51:42.964Z,21.43
2022-11-10T10:54:09.744Z,21.70
2022-11-10T10:56:36.493Z,21.87
2022-11-10T10:59:03.238Z,21.79
2022-11-10T11:01:30.457Z,22.07
2022-11-10T11:03:57.399Z,21.98
2022-11-10T11:06:26.640Z,22.08
2022-11-10T11:08:58.230Z,19.27
2022-11-10T11:11:26.170Z,18.46
2022-11-10T11:13:52.970Z,19.73
2022-11-10T11:16:19.896Z,20.82
2022-11-10T11:18:46.657Z,21.41
2022-11-10T11:21:13.402Z,21.48
2022-11-10T11:23:40.168Z,21.67
2022-11-10T11:26:06.920Z,21.80
2022-11-10T11:28:33.708Z,21.82
2022-11-10T11:31:00.530Z,22.08
2022-11-10T11:33:28.975Z,19.98
2022-11-10T11:35:55.711Z,18.44
2022-11-10T11:38:22.779Z,18.79
2022-11-10T11:40:49.791Z,20.52
2022-11-10T11:43:16.551Z,21.26
2022-11-10T11:45:43.626Z,21.42
2022-11-10T11:48:10.427Z,21.41
2022-11-10T11:50:37.180Z,21.57
2022-11-10T11:53:03.961Z,21.86
2022-11-10T11:55:31.220Z,21.70
2022-11-10T11:57:58.106Z,21.80
2022-11-10T12:00:24.890Z,22.00
2022-11-10T12:02:53.459Z,22.07
2022-11-10T12:05:20.303Z,21.04
2022-11-10T12:07:47.077Z,18.77
2022-11-10T12:10:13.928Z,18.71
2022-11-10T12:12:40.769Z,20.27
2022-11-10T12:15:07.695Z,21.03
2022-11-10T12:17:34.472Z,21.38
2022-11-10T12:20:01.235Z,21.55
2022-11-10T12:22:27.998Z,21.73
2022-11-10T12:24:54.812Z,21.76
2022-11-10T12:27:21.556Z,21.81
2022-11-10T12:29:48.325Z,21.99
2022-11-10T12:32:15.081Z,20.97
2022-11-10T12:34:43.741Z,18.74
2022-11-10T12:37:10.504Z,18.43
2022-11-10T12:39:37.249Z,20.14
2022-11-10T12:42:04.078Z,21.03
2022-11-10T12:44:30.864Z,21.34
2022-11-10T12:46:57.620Z,21.65
2022-11-10T12:49:24.389Z,21.60
2022-11-10T12:51:51.206Z,21.70
2022-11-10T12:54:17.998Z,21.88
2022-11-10T12:56:44.925Z,21.93
2022-11-10T12:59:11.737Z,21.91
2022-11-10T13:01:38.542Z,21.91
2022-11-10T13:04:05.319Z,20.02
2022-11-10T13:06:32.144Z,18.76
2022-11-10T13:08:58.968Z,19.18
2022-11-10T13:11:25.755Z,20.62
2022-11-10T13:13:58.175Z,21.32
2022-11-10T13:16:26.285Z,21.66
2022-11-10T13:18:53.067Z,21.53
2022-11-10T13:21:19.821Z,21.66
2022-11-10T13:23:46.568Z,21.85
2022-11-10T13:26:13.325Z,21.94
2022-11-10T13:28:40.085Z,21.65
2022-11-10T13:31:06.886Z,18.80
2022-11-10T13:33:33.908Z,18.63
2022-11-10T13:36:00.664Z,20.17
2022-11-10T13:38:27.416Z,21.03
2022-11-10T13:40:54.246Z,21.26
2022-11-10T13:43:21.064Z,21.52
2022-11-10T13:45:47.834Z,21.77
2022-11-10T13:48:14.631Z,21.61
2022-11-10T13:50:41.483Z,21.84
2022-11-10T13:53:08.255Z,21.92
2022-11-10T13:55:35.027Z,21.94
2022-11-10T13:58:01.779Z,20.89
2022-11-10T14:00:28.591Z,18.51
2022-11-10T14:02:55.587Z,18.38
2022-11-10T14:05:22.368Z,20.19
2022-11-10T14:07:49.125Z,20.93
2022-11-10T14:10:15.905Z,21.22
2022-11-10T14:12:42.676Z,21.36
2022-11-10T14:15:09.455Z,21.53
2022-11-10T14:17:36.254Z,21.64
2022-11-10T14:20:03.902Z,21.85
2022-11-10T14:22:30.793Z,21.79
2022-11-10T14:24:57.590Z,21.88
2022-11-10T14:27:24.354Z,18.94
2022-11-10T14:29:51.099Z,18.37
2022-11-10T14:32:18.147Z,19.66
2022-11-10T14:34:44.892Z,20.70
2022-11-10T14:37:11.662Z,21.20
2022-11-10T14:39:38.436Z,21.32
2022-11-10T14:42:05.194Z,21.50
2022-11-10T14:44:32.003Z,21.72
2022-11-10T14:46:59.242Z,21.74
2022-11-10T14:49:26.014Z,21.67
2022-11-10T14:51:52.833Z,21.88
2022-11-10T14:54:19.623Z,19.86
2022-11-10T14:56:47.435Z,17.94
2022-11-10T14:59:14.175Z,17.59
2022-11-10T15:01:42.131Z,19.55
2022-11-10T15:04:08.875Z,20.46
2022-11-10T15:06:35.650Z,20.89
2022-11-10T15:09:02.468Z,21.21
2022-11-10T15:11:29.221Z,21.45
2022-11-10T15:13:55.980Z,21.48
2022-11-10T15:16:22.812Z,21.47
2022-11-10T15:18:50.917Z,21.54
2022-11-10T15:21:17.709Z,21.70
2022-11-10T15:23:44.480Z,21.73
2022-11-10T15:26:11.231Z,21.96
2022-11-10T15:28:37.989Z,22.00
2022-11-10T15:31:05.340Z,20.05
2022-11-10T15:33:32.390Z,17.90
2022-11-10T15:35:59.142Z,17.50
2022-11-10T15:38:26.121Z,19.33
2022-11-10T15:40:53.112Z,20.31
2022-11-10T15:43:20.266Z,21.07
2022-11-10T15:45:47.254Z,21.17
2022-11-10T15:48:14.030Z,21.24
2022-11-10T15:50:40.820Z,21.47
2022-11-10T15:53:07.896Z,21.62
2022-11-10T15:55:35.391Z,21.69
2022-11-10T15:58:02.395Z,21.69
2022-11-10T16:00:29.159Z,21.80
2022-11-10T16:02:55.995Z,21.96
2022-11-10T16:05:22.808Z,21.91
2022-11-10T16:07:49.696Z,22.07
2022-11-10T16:10:16.475Z,19.47
2022-11-10T16:12:43.256Z,17.61
2022-11-10T16:15:10.361Z,18.67
2022-11-10T16:17:37.341Z,20.04
2022-11-10T16:20:04.284Z,20.79
2022-11-10T16:22:31.060Z,21.10
2022-11-10T16:24:57.824Z,21.41
2022-11-10T16:27:24.599Z,21.72
2022-11-10T16:29:51.370Z,21.81
2022-11-10T16:32:18.126Z,21.68
2022-11-10T16:34:45.009Z,21.83
2022-11-10T16:37:11.853Z,21.92
2022-11-10T16:39:38.616Z,22.05
2022-11-10T16:42:05.363Z,20.95
2022-11-10T16:44:32.147Z,18.04
2022-11-10T16:46:58.904Z,17.18
2022-11-10T16:49:25.719Z,19.18
2022-11-10T16:51:52.535Z,20.21
2022-11-10T16:54:19.342Z,20.70
2022-11-10T16:56:46.106Z,21.18
2022-11-10T16:59:13.514Z,21.39
2022-11-10T17:01:40.317Z,21.52
2022-11-10T17:04:07.208Z,21.65
2022-11-10T17:06:34.070Z,21.53
2022-11-10T17:09:00.903Z,21.72
2022-11-10T17:11:27.659Z,21.81
2022-11-10T17:13:54.437Z,21.83
2022-11-10T17:16:21.199Z,21.99
2022-11-10T17:18:47.952Z,22.03
2022-11-10T17:21:14.731Z,19.95
2022-11-10T17:23:41.510Z,17.78
2022-11-10T17:26:08.319Z,17.61
2022-11-10T17:28:35.092Z,19.36
2022-11-10T17:31:03.140Z,20.39
2022-11-10T17:33:29.916Z,21.07
2022-11-10T17:35:56.690Z,21.06
2022-11-10T17:38:23.454Z,21.52
2022-11-10T17:40:50.224Z,21.47
2022-11-10T17:43:17.006Z,21.71
2022-11-10T17:45:43.803Z,21.67
2022-11-10T17:48:10.561Z,21.71
2022-11-10T17:50:37.344Z,21.80
2022-11-10T17:53:04.129Z,22.03
2022-11-10T17:55:34.194Z,21.92
2022-11-10T17:58:01.331Z,19.97
2022-11-10T18:00:28.075Z,17.97
2022-11-10T18:02:55.522Z,17.48
2022-11-10T18:05:22.367Z,19.61
2022-11-10T18:07:49.138Z,20.38
2022-11-10T18:10:16.091Z,20.83
2022-11-10T18:12:42.889Z,21.10
2022-11-10T18:15:09.671Z,21.27
2022-11-10T18:17:36.534Z,21.56
2022-11-10T18:20:03.508Z,21.57
2022-11-10T18:22:30.286Z,21.72
2022-11-10T18:24:57.103Z,21.69
2022-11-10T18:27:23.862Z,21.97
2022-11-10T18:29:51.429Z,22.00
2022-11-10T18:32:18.383Z,20.86
2022-11-10T18:34:45.353Z,18.16
2022-11-10T18:37:12.163Z,16.75
2022-11-10T18:39:38.910Z,18.82
2022-11-10T18:42:05.685Z,19.91
2022-11-10T18:44:36.798Z,20.61
2022-11-10T18:47:03.826Z,20.94
2022-11-10T18:49:30.594Z,21.09
2022-11-10T18:51:57.357Z,21.31
2022-11-10T18:54:24.181Z,21.44
2022-11-10T18:56:50.974Z,21.63
2022-11-10T18:59:17.725Z,21.57
2022-11-10T19:01:44.691Z,21.64
2022-11-10T19:04:11.617Z,21.78
2022-11-10T19:06:38.482Z,21.83
2022-11-10T19:09:05.289Z,21.95
2022-11-10T19:11:32.119Z,20.87
2022-11-10T19:14:00.678Z,17.89
2022-11-10T19:16:27.452Z,17.66
2022-11-10T19:18:54.475Z,19.71
2022-11-10T19:21:21.247Z,20.49
2022-11-10T19:23:48.059Z,21.03
2022-11-10T19:26:20.915Z,21.14
2022-11-10T19:28:49.175Z,21.23
2022-11-10T19:31:15.982Z,21.37
2022-11-10T19:33:42.814Z,21.56
2022-11-10T19:36:09.583Z,21.83
2022-11-10T19:38:36.427Z,21.85
2022-11-10T19:41:03.425Z,21.78
2022-11-10T19:43:30.724Z,21.90
2022-11-10T19:45:57.504Z,19.77
2022-11-10T19:48:24.283Z,17.71
2022-11-10T19:50:51.057Z,18.54
2022-11-10T19:53:17.810Z,20.32
2022-11-10T19:55:44.569Z,20.76
2022-11-10T19:58:11.317Z,21.14
2022-11-10T20:00:38.070Z,21.38
2022-11-10T20:03:11.220Z,21.49
2022-11-10T20:05:39.724Z,21.50
2022-11-10T20:08:12.532Z,21.72
2022-11-10T20:10:39.330Z,21.73
2022-11-10T20:13:06.139Z,21.91
2022-11-10T20:15:32.909Z,21.90
2022-11-10T20:17:59.718Z,18.44
2022-11-10T20:20:26.489Z,18.18
2022-11-10T20:22:53.339Z,19.74
2022-11-10T20:25:20.096Z,20.77
2022-11-10T20:27:46.947Z,21.23
2022-11-10T20:30:13.709Z,21.14
2022-11-10T20:32:40.457Z,21.48
2022-11-10T20:35:07.233Z,21.58
2022-11-10T20:37:34.050Z,21.79
2022-11-10T20:40:01.020Z,21.83
2022-11-10T20:42:29.193Z,21.84
2022-11-10T20:44:55.961Z,21.93
2022-11-10T20:47:22.887Z,21.98
2022-11-10T20:49:49.725Z,20.86
2022-11-10T20:52:16.477Z,17.84
2022-11-10T20:54:44.284Z,17.36
2022-11-10T20:57:11.052Z,19.65
2022-11-10T20:59:37.851Z,20.43
2022-11-10T21:02:04.647Z,20.81
2022-11-10T21:04:31.512Z,21.01
2022-11-10T21:06:58.290Z,21.35
2022-11-10T21:09:26.061Z,21.50
2022-11-10T21:12:11.475Z,21.54
2022-11-10T21:14:38.231Z,21.57
2022-11-10T21:17:04.980Z,21.78
2022-11-10T21:19:31.771Z,21.89
2022-11-10T21:21:58.623Z,21.91
2022-11-10T21:24:27.896Z,21.74
2022-11-10T21:26:54.792Z,18.22
2022-11-10T21:29:21.607Z,17.80
2022-11-10T21:31:48.404Z,19.75
2022-11-10T21:34:15.184Z,20.67
2022-11-10T21:36:42.011Z,21.05
2022-11-10T21:39:08.756Z,21.11
2022-11-10T21:41:35.686Z,21.43
2022-11-10T21:44:02.501Z,21.47
2022-11-10T21:46:29.343Z,21.52
2022-11-10T21:48:56.118Z,21.73
2022-11-10T21:51:22.914Z,21.89
2022-11-10T21:53:49.666Z,21.94
2022-11-10T21:56:16.474Z,21.95
2022-11-10T21:58:43.273Z,19.15
2022-11-10T22:01:10.122Z,17.31
2022-11-10T22:03:36.978Z,18.02
2022-11-10T22:06:03.872Z,19.77
2022-11-10T22:08:30.643Z,20.52
2022-11-10T22:11:15.880Z,21.00
2022-11-10T22:14:01.268Z,21.14
2022-11-10T22:16:46.652Z,21.26
2022-11-10T22:19:13.608Z,21.46
2022-11-10T22:21:40.359Z,21.58
2022-11-10T22:24:25.736Z,21.70
2022-11-10T22:26:52.504Z,21.74
2022-11-10T22:29:19.247Z,21.73
2022-11-10T22:31:46.038Z,21.93
2022-11-10T22:34:12.815Z,21.95
2022-11-10T22:36:39.588Z,19.12
2022-11-10T22:39:06.428Z,17.23
2022-11-10T22:41:51.835Z,17.83
2022-11-10T22:44:19.465Z,19.82
2022-11-10T22:46:52.002Z,20.54
2022-11-10T22:49:18.766Z,20.90
2022-11-10T22:51:45.535Z,20.91
2022-11-10T22:54:12.297Z,21.23
2022-11-10T22:56:39.265Z,21.27
2022-11-10T22:59:06.075Z,21.48
2022-11-10T23:01:32.909Z,21.70
2022-11-10T23:03:59.720Z,21.67
2022-11-10T23:06:26.551Z,21.93
2022-11-10T23:08:53.321Z,21.79
2022-11-10T23:11:20.196Z,21.97
2022-11-10T23:13:47.014Z,21.97
2022-11-10T23:16:13.772Z,18.85
2022-11-10T23:18:40.598Z,17.50
2022-11-10T23:21:07.398Z,18.59
2022-11-10T23:23:34.140Z,20.25
2022-11-10T23:26:00.883Z,20.86
2022-11-10T23:28:27.796Z,21.07
2022-11-10T23:30:54.572Z,21.05
2022-11-10T23:33:21.571Z,21.39
2022-11-10T23:35:48.916Z,21.65
2022-11-10T23:38:16.215Z,21.46
2022-11-10T23:40:42.997Z,21.69
2022-11-10T23:43:09.818Z,21.84
2022-11-10T23:46:04.888Z,21.84
2022-11-10T23:48:23.643Z,22.00
2022-11-10T23:50:50.626Z,19.90
2022-11-10T23:53:17.393Z,17.58
2022-11-10T23:55:44.208Z,17.88
2022-11-10T23:58:10.978Z,19.78
